sensor_id;sensor_type;location;lat;lon;timestamp;pressure;altitude;pressure_sealevel;temperature;humidity
68197;BME280;55019;49.382;11.358;2022-10-22T00:01:03;96352.81;;;11.74;100.00
68197;BME280;55019;49.382;11.358;2022-10-22T00:03:28;96346.97;;;11.72;100.00
68197;BME280;55019;49.382;11.358;2022-10-22T00:05:54;96354.56;;;11.73;100.00
68197;BME280;55019;49.382;11.358;2022-10-22T00:08:19;96356.88;;;11.68;100.00
68197;BME280;55019;49.382;11.358;2022-10-22T00:10:45;96355.72;;;11.71;100.00
68197;BME280;55019;49.382;11.358;2022-10-22T00:13:11;96354.28;;;11.68;100.00
68197;BME280;55019;49.382;11.358;2022-10-22T00:15:36;96358.03;;;11.66;100.00
68197;BME280;55019;49.382;11.358;2022-10-22T00:18:02;96357.22;;;11.65;100.00
68197;BME280;55019;49.382;11.358;2022-10-22T00:20:27;96356.25;;;11.66;100.00
68197;BME280;55019;49.382;11.358;2022-10-22T00:22:53;96356.53;;;11.71;100.00
68197;BME280;55019;49.382;11.358;2022-10-22T00:25:18;96363.88;;;11.82;100.00
68197;BME280;55019;49.382;11.358;2022-10-22T00:27:44;96354.41;;;11.89;100.00
68197;BME280;55019;49.382;11.358;2022-10-22T00:30:09;96355.22;;;11.90;100.00
68197;BME280;55019;49.382;11.358;2022-10-22T00:32:35;96368.38;;;12.17;100.00
68197;BME280;55019;49.382;11.358;2022-10-22T00:35:00;96362.03;;;12.20;100.00
68197;BME280;55019;49.382;11.358;2022-10-22T00:37:26;96360.06;;;12.22;100.00
68197;BME280;55019;49.382;11.358;2022-10-22T00:39:51;96368.56;;;12.45;100.00
68197;BME280;55019;49.382;11.358;2022-10-22T00:42:21;96374.13;;;12.42;100.00
68197;BME280;55019;49.382;11.358;2022-10-22T00:45:02;96371.34;;;12.43;100.00
68197;BME280;55019;49.382;11.358;2022-10-22T00:47:34;96374.84;;;12.50;100.00
68197;BME280;55019;49.382;11.358;2022-10-22T00:50:01;96369.66;;;12.50;100.00
68197;BME280;55019;49.382;11.358;2022-10-22T00:52:28;96372.94;;;12.59;100.00
68197;BME280;55019;49.382;11.358;2022-10-22T00:54:53;96370.44;;;12.65;100.00
68197;BME280;55019;49.382;11.358;2022-10-22T00:57:19;96376.41;;;12.66;100.00
68197;BME280;55019;49.382;11.358;2022-10-22T00:59:46;96375.88;;;12.56;100.00
68197;BME280;55019;49.382;11.358;2022-10-22T01:02:11;96372.88;;;12.52;100.00
68197;BME280;55019;49.382;11.358;2022-10-22T01:04:37;96373.19;;;12.49;100.00
68197;BME280;55019;49.382;11.358;2022-10-22T01:07:02;96370.00;;;12.47;100.00
68197;BME280;55019;49.382;11.358;2022-10-22T01:12:11;96373.03;;;12.65;100.00
68197;BME280;55019;49.382;11.358;2022-10-22T01:17:58;96379.72;;;12.60;100.00
68197;BME280;55019;49.382;11.358;2022-10-22T01:31:15;96374.56;;;12.60;100.00
68197;BME280;55019;49.382;11.358;2022-10-22T01:33:43;96361.69;;;12.66;100.00
68197;BME280;55019;49.382;11.358;2022-10-22T01:36:11;96364.53;;;12.71;100.00
68197;BME280;55019;49.382;11.358;2022-10-22T01:38:38;96362.31;;;12.68;100.00
68197;BME280;55019;49.382;11.358;2022-10-22T01:41:06;96368.72;;;12.72;100.00
68197;BME280;55019;49.382;11.358;2022-10-22T01:43:32;96363.63;;;12.79;100.00
68197;BME280;55019;49.382;11.358;2022-10-22T01:45:59;96354.94;;;12.72;100.00
68197;BME280;55019;49.382;11.358;2022-10-22T01:48:44;96347.13;;;12.65;100.00
68197;BME280;55019;49.382;11.358;2022-10-22T01:54:30;96342.09;;;12.49;100.00
68197;BME280;55019;49.382;11.358;2022-10-22T01:57:13;96333.03;;;12.53;100.00
68197;BME280;55019;49.382;11.358;2022-10-22T01:59:58;96333.28;;;12.44;100.00
68197;BME280;55019;49.382;11.358;2022-10-22T02:08:09;96319.00;;;12.33;100.00
68197;BME280;55019;49.382;11.358;2022-10-22T02:10:37;96332.03;;;12.25;100.00
68197;BME280;55019;49.382;11.358;2022-10-22T02:13:07;96337.22;;;12.25;100.00
68197;BME280;55019;49.382;11.358;2022-10-22T02:15:35;96333.84;;;12.25;100.00
68197;BME280;55019;49.382;11.358;2022-10-22T02:18:03;96339.19;;;12.23;100.00
68197;BME280;55019;49.382;11.358;2022-10-22T02:20:34;96330.94;;;12.20;100.00
68197;BME280;55019;49.382;11.358;2022-10-22T02:23:01;96328.09;;;12.15;100.00
68197;BME280;55019;49.382;11.358;2022-10-22T02:25:32;96336.06;;;12.13;100.00
68197;BME280;55019;49.382;11.358;2022-10-22T02:30:47;96333.13;;;12.31;100.00
68197;BME280;55019;49.382;11.358;2022-10-22T02:33:25;96341.94;;;12.36;100.00
68197;BME280;55019;49.382;11.358;2022-10-22T02:35:52;96346.75;;;12.39;100.00
68197;BME280;55019;49.382;11.358;2022-10-22T02:38:18;96351.78;;;12.26;100.00
68197;BME280;55019;49.382;11.358;2022-10-22T02:40:45;96350.69;;;12.35;100.00
68197;BME280;55019;49.382;11.358;2022-10-22T02:43:10;96350.69;;;12.35;100.00
68197;BME280;55019;49.382;11.358;2022-10-22T02:45:36;96350.16;;;12.25;100.00
68197;BME280;55019;49.382;11.358;2022-10-22T02:48:02;96343.75;;;12.21;100.00
68197;BME280;55019;49.382;11.358;2022-10-22T02:50:31;96350.88;;;12.19;100.00
68197;BME280;55019;49.382;11.358;2022-10-22T02:52:56;96349.91;;;12.20;100.00
68197;BME280;55019;49.382;11.358;2022-10-22T02:55:21;96345.25;;;12.16;100.00
68197;BME280;55019;49.382;11.358;2022-10-22T02:57:47;96340.06;;;12.16;100.00
68197;BME280;55019;49.382;11.358;2022-10-22T03:00:12;96336.41;;;12.10;100.00
68197;BME280;55019;49.382;11.358;2022-10-22T03:02:38;96332.22;;;12.09;100.00
68197;BME280;55019;49.382;11.358;2022-10-22T03:05:04;96328.19;;;12.07;100.00
68197;BME280;55019;49.382;11.358;2022-10-22T03:07:29;96329.00;;;12.07;100.00
68197;BME280;55019;49.382;11.358;2022-10-22T03:09:55;96344.09;;;12.04;100.00
68197;BME280;55019;49.382;11.358;2022-10-22T03:12:20;96339.09;;;12.02;100.00
68197;BME280;55019;49.382;11.358;2022-10-22T03:14:46;96333.91;;;12.02;100.00
68197;BME280;55019;49.382;11.358;2022-10-22T03:17:11;96340.25;;;12.00;100.00
68197;BME280;55019;49.382;11.358;2022-10-22T03:19:36;96333.00;;;11.95;100.00
68197;BME280;55019;49.382;11.358;2022-10-22T03:22:05;96344.16;;;11.96;100.00
68197;BME280;55019;49.382;11.358;2022-10-22T03:24:43;96353.69;;;11.95;100.00
68197;BME280;55019;49.382;11.358;2022-10-22T03:27:10;96338.16;;;11.95;100.00
68197;BME280;55019;49.382;11.358;2022-10-22T03:29:38;96337.72;;;11.92;100.00
68197;BME280;55019;49.382;11.358;2022-10-22T03:32:04;96335.78;;;11.94;100.00
68197;BME280;55019;49.382;11.358;2022-10-22T03:34:30;96334.59;;;11.96;100.00
68197;BME280;55019;49.382;11.358;2022-10-22T03:36:58;96343.00;;;11.98;100.00
68197;BME280;55019;49.382;11.358;2022-10-22T03:39:24;96348.09;;;11.92;100.00
68197;BME280;55019;49.382;11.358;2022-10-22T03:41:51;96358.25;;;11.93;100.00
68197;BME280;55019;49.382;11.358;2022-10-22T03:44:18;96366.38;;;11.90;100.00
68197;BME280;55019;49.382;11.358;2022-10-22T03:46:44;96373.16;;;11.91;100.00
68197;BME280;55019;49.382;11.358;2022-10-22T03:49:10;96388.22;;;12.10;100.00
68197;BME280;55019;49.382;11.358;2022-10-22T03:51:36;96387.81;;;11.99;100.00
68197;BME280;55019;49.382;11.358;2022-10-22T03:54:02;96392.06;;;12.14;100.00
68197;BME280;55019;49.382;11.358;2022-10-22T03:56:28;96398.94;;;12.07;100.00
68197;BME280;55019;49.382;11.358;2022-10-22T03:58:56;96406.69;;;12.22;100.00
68197;BME280;55019;49.382;11.358;2022-10-22T04:01:22;96410.47;;;12.19;100.00
68197;BME280;55019;49.382;11.358;2022-10-22T04:03:47;96419.75;;;12.28;100.00
68197;BME280;55019;49.382;11.358;2022-10-22T04:06:13;96409.72;;;12.11;100.00
68197;BME280;55019;49.382;11.358;2022-10-22T04:08:39;96404.09;;;12.07;100.00
68197;BME280;55019;49.382;11.358;2022-10-22T04:11:08;96415.38;;;12.14;100.00
68197;BME280;55019;49.382;11.358;2022-10-22T04:13:34;96420.91;;;12.11;100.00
68197;BME280;55019;49.382;11.358;2022-10-22T04:16:09;96423.41;;;12.19;100.00
68197;BME280;55019;49.382;11.358;2022-10-22T04:18:35;96433.66;;;12.13;100.00
68197;BME280;55019;49.382;11.358;2022-10-22T04:21:01;96425.25;;;12.11;100.00
68197;BME280;55019;49.382;11.358;2022-10-22T04:23:26;96424.13;;;12.13;100.00
68197;BME280;55019;49.382;11.358;2022-10-22T04:26:04;96428.28;;;12.00;100.00
68197;BME280;55019;49.382;11.358;2022-10-22T04:28:29;96436.91;;;11.92;100.00
68197;BME280;55019;49.382;11.358;2022-10-22T04:30:55;96425.28;;;11.88;100.00
68197;BME280;55019;49.382;11.358;2022-10-22T04:33:20;96424.03;;;11.84;100.00
68197;BME280;55019;49.382;11.358;2022-10-22T04:35:46;96430.72;;;11.79;100.00
68197;BME280;55019;49.382;11.358;2022-10-22T04:38:12;96434.28;;;11.78;100.00
68197;BME280;55019;49.382;11.358;2022-10-22T04:40:37;96429.56;;;11.81;100.00
68197;BME280;55019;49.382;11.358;2022-10-22T04:43:03;96435.38;;;11.83;100.00
68197;BME280;55019;49.382;11.358;2022-10-22T04:45:29;96433.81;;;11.74;100.00
68197;BME280;55019;49.382;11.358;2022-10-22T04:47:54;96430.81;;;11.85;100.00
68197;BME280;55019;49.382;11.358;2022-10-22T04:50:20;96451.81;;;11.90;100.00
68197;BME280;55019;49.382;11.358;2022-10-22T04:52:45;96448.59;;;11.88;100.00
68197;BME280;55019;49.382;11.358;2022-10-22T04:55:11;96457.19;;;11.89;100.00
68197;BME280;55019;49.382;11.358;2022-10-22T04:57:36;96459.22;;;11.93;100.00
68197;BME280;55019;49.382;11.358;2022-10-22T05:00:03;96459.22;;;11.93;100.00
68197;BME280;55019;49.382;11.358;2022-10-22T05:02:28;96470.84;;;11.97;100.00
68197;BME280;55019;49.382;11.358;2022-10-22T05:04:54;96471.88;;;11.88;100.00
68197;BME280;55019;49.382;11.358;2022-10-22T05:07:22;96468.88;;;11.85;100.00
68197;BME280;55019;49.382;11.358;2022-10-22T05:09:48;96463.84;;;11.83;100.00
68197;BME280;55019;49.382;11.358;2022-10-22T05:12:14;96468.31;;;11.89;100.00
68197;BME280;55019;49.382;11.358;2022-10-22T05:14:39;96473.56;;;11.81;100.00
68197;BME280;55019;49.382;11.358;2022-10-22T05:17:05;96482.25;;;11.88;100.00
68197;BME280;55019;49.382;11.358;2022-10-22T05:19:30;96478.75;;;11.81;100.00
68197;BME280;55019;49.382;11.358;2022-10-22T05:22:01;96481.91;;;11.91;100.00
68197;BME280;55019;49.382;11.358;2022-10-22T05:24:28;96478.41;;;11.84;100.00
68197;BME280;55019;49.382;11.358;2022-10-22T05:26:55;96485.13;;;11.93;100.00
68197;BME280;55019;49.382;11.358;2022-10-22T05:29:21;96487.06;;;11.91;100.00
68197;BME280;55019;49.382;11.358;2022-10-22T05:31:47;96494.28;;;11.81;100.00
68197;BME280;55019;49.382;11.358;2022-10-22T05:34:13;96491.06;;;11.79;100.00
68197;BME280;55019;49.382;11.358;2022-10-22T05:36:39;96489.16;;;11.73;100.00
68197;BME280;55019;49.382;11.358;2022-10-22T05:39:05;96481.22;;;11.75;100.00
68197;BME280;55019;49.382;11.358;2022-10-22T05:41:31;96486.28;;;11.68;100.00
68197;BME280;55019;49.382;11.358;2022-10-22T05:43:58;96483.81;;;11.75;100.00
68197;BME280;55019;49.382;11.358;2022-10-22T05:46:29;96490.47;;;11.69;100.00
68197;BME280;55019;49.382;11.358;2022-10-22T05:48:57;96491.47;;;11.68;100.00
68197;BME280;55019;49.382;11.358;2022-10-22T05:51:24;96481.31;;;11.59;100.00
68197;BME280;55019;49.382;11.358;2022-10-22T05:53:55;96496.72;;;11.52;100.00
68197;BME280;55019;49.382;11.358;2022-10-22T05:56:22;96504.63;;;11.51;100.00
68197;BME280;55019;49.382;11.358;2022-10-22T05:58:48;96499.63;;;11.49;100.00
68197;BME280;55019;49.382;11.358;2022-10-22T06:01:17;96499.66;;;11.42;100.00
68197;BME280;55019;49.382;11.358;2022-10-22T06:03:43;96516.78;;;11.43;100.00
68197;BME280;55019;49.382;11.358;2022-10-22T06:06:19;96509.56;;;11.38;100.00
68197;BME280;55019;49.382;11.358;2022-10-22T06:08:47;96507.81;;;11.31;100.00
68197;BME280;55019;49.382;11.358;2022-10-22T06:11:13;96504.13;;;11.25;100.00
68197;BME280;55019;49.382;11.358;2022-10-22T06:13:39;96504.44;;;11.22;100.00
68197;BME280;55019;49.382;11.358;2022-10-22T06:16:04;96511.75;;;11.19;100.00
68197;BME280;55019;49.382;11.358;2022-10-22T06:18:30;96513.34;;;11.20;100.00
68197;BME280;55019;49.382;11.358;2022-10-22T06:20:55;96515.44;;;11.24;100.00
68197;BME280;55019;49.382;11.358;2022-10-22T06:23:20;96526.25;;;11.28;100.00
68197;BME280;55019;49.382;11.358;2022-10-22T06:25:55;96517.53;;;11.21;100.00
68197;BME280;55019;49.382;11.358;2022-10-22T06:28:21;96529.50;;;11.22;100.00
68197;BME280;55019;49.382;11.358;2022-10-22T06:30:46;96532.72;;;11.24;100.00
68197;BME280;55019;49.382;11.358;2022-10-22T06:33:12;96533.66;;;11.31;100.00
68197;BME280;55019;49.382;11.358;2022-10-22T06:35:37;96541.44;;;11.31;100.00
68197;BME280;55019;49.382;11.358;2022-10-22T06:38:02;96544.66;;;11.33;100.00
68197;BME280;55019;49.382;11.358;2022-10-22T06:40:28;96546.09;;;11.35;100.00
68197;BME280;55019;49.382;11.358;2022-10-22T06:42:54;96554.03;;;11.34;100.00
68197;BME280;55019;49.382;11.358;2022-10-22T06:45:19;96560.94;;;11.41;100.00
68197;BME280;55019;49.382;11.358;2022-10-22T06:47:45;96574.19;;;11.46;100.00
68197;BME280;55019;49.382;11.358;2022-10-22T06:50:11;96571.75;;;11.44;100.00
68197;BME280;55019;49.382;11.358;2022-10-22T06:52:37;96584.03;;;11.50;100.00
68197;BME280;55019;49.382;11.358;2022-10-22T06:55:02;96583.69;;;11.53;100.00
68197;BME280;55019;49.382;11.358;2022-10-22T06:57:29;96581.75;;;11.63;100.00
68197;BME280;55019;49.382;11.358;2022-10-22T06:59:54;96595.44;;;11.72;100.00
68197;BME280;55019;49.382;11.358;2022-10-22T07:02:19;96601.09;;;11.75;100.00
68197;BME280;55019;49.382;11.358;2022-10-22T07:04:45;96606.22;;;11.83;100.00
68197;BME280;55019;49.382;11.358;2022-10-22T07:07:10;96609.75;;;11.90;100.00
68197;BME280;55019;49.382;11.358;2022-10-22T07:09:36;96602.59;;;11.92;100.00
68197;BME280;55019;49.382;11.358;2022-10-22T07:12:03;96607.00;;;11.92;100.00
68197;BME280;55019;49.382;11.358;2022-10-22T07:14:29;96608.16;;;12.12;100.00
68197;BME280;55019;49.382;11.358;2022-10-22T07:16:54;96611.22;;;12.15;100.00
68197;BME280;55019;49.382;11.358;2022-10-22T07:19:19;96618.78;;;12.25;100.00
68197;BME280;55019;49.382;11.358;2022-10-22T07:21:45;96620.22;;;12.27;100.00
68197;BME280;55019;49.382;11.358;2022-10-22T07:24:10;96621.25;;;12.41;100.00
68197;BME280;55019;49.382;11.358;2022-10-22T07:26:35;96623.50;;;12.44;100.00
68197;BME280;55019;49.382;11.358;2022-10-22T07:29:01;96625.44;;;12.64;100.00
68197;BME280;55019;49.382;11.358;2022-10-22T07:31:27;96629.03;;;12.63;99.31
68197;BME280;55019;49.382;11.358;2022-10-22T07:33:53;96624.88;;;12.77;98.77
68197;BME280;55019;49.382;11.358;2022-10-22T07:36:18;96634.28;;;12.92;96.67
68197;BME280;55019;49.382;11.358;2022-10-22T07:38:46;96630.59;;;13.09;93.60
68197;BME280;55019;49.382;11.358;2022-10-22T07:41:13;96634.53;;;13.05;94.15
68197;BME280;55019;49.382;11.358;2022-10-22T07:43:38;96634.28;;;12.92;94.77
68197;BME280;55019;49.382;11.358;2022-10-22T07:46:04;96638.66;;;13.14;94.63
68197;BME280;55019;49.382;11.358;2022-10-22T07:48:29;96640.19;;;13.37;92.99
68197;BME280;55019;49.382;11.358;2022-10-22T07:50:55;96634.81;;;13.53;93.15
68197;BME280;55019;49.382;11.358;2022-10-22T07:53:22;96641.91;;;14.09;89.86
68197;BME280;55019;49.382;11.358;2022-10-22T07:55:49;96639.03;;;14.54;86.76
68197;BME280;55019;49.382;11.358;2022-10-22T07:58:15;96653.50;;;15.32;84.80
68197;BME280;55019;49.382;11.358;2022-10-22T08:00:41;96665.84;;;15.85;79.92
68197;BME280;55019;49.382;11.358;2022-10-22T08:03:09;96663.06;;;15.93;78.55
68197;BME280;55019;49.382;11.358;2022-10-22T08:05:35;96670.97;;;16.12;78.37
68197;BME280;55019;49.382;11.358;2022-10-22T08:08:00;96669.38;;;16.65;74.52
68197;BME280;55019;49.382;11.358;2022-10-22T08:10:26;96682.88;;;17.65;72.22
68197;BME280;55019;49.382;11.358;2022-10-22T08:12:51;96689.72;;;17.47;70.75
68197;BME280;55019;49.382;11.358;2022-10-22T08:15:17;96688.09;;;17.65;69.17
68197;BME280;55019;49.382;11.358;2022-10-22T08:17:42;96689.66;;;17.79;68.46
68197;BME280;55019;49.382;11.358;2022-10-22T08:20:08;96683.50;;;17.48;68.66
68197;BME280;55019;49.382;11.358;2022-10-22T08:22:33;96694.72;;;17.23;69.38
68197;BME280;55019;49.382;11.358;2022-10-22T08:24:59;96698.47;;;16.75;70.99
68197;BME280;55019;49.382;11.358;2022-10-22T08:27:24;96696.28;;;16.72;72.82
68197;BME280;55019;49.382;11.358;2022-10-22T08:29:50;96694.16;;;16.35;74.57
68197;BME280;55019;49.382;11.358;2022-10-22T08:32:15;96694.78;;;15.96;76.27
68197;BME280;55019;49.382;11.358;2022-10-22T08:34:40;96693.16;;;16.36;74.24
68197;BME280;55019;49.382;11.358;2022-10-22T08:37:06;96692.72;;;15.92;74.05
68197;BME280;55019;49.382;11.358;2022-10-22T08:39:33;96706.13;;;15.07;78.92
68197;BME280;55019;49.382;11.358;2022-10-22T08:50:48;96695.38;;;14.89;80.94
68197;BME280;55019;49.382;11.358;2022-10-22T08:53:38;96709.78;;;14.91;80.20
68197;BME280;55019;49.382;11.358;2022-10-22T08:56:06;96698.53;;;14.84;80.56
68197;BME280;55019;49.382;11.358;2022-10-22T08:58:40;96702.34;;;14.88;81.08
68197;BME280;55019;49.382;11.358;2022-10-22T09:01:18;96703.97;;;14.89;82.51
68197;BME280;55019;49.382;11.358;2022-10-22T09:03:56;96709.66;;;14.78;81.08
68197;BME280;55019;49.382;11.358;2022-10-22T09:06:25;96710.53;;;14.64;83.27
68197;BME280;55019;49.382;11.358;2022-10-22T09:08:53;96716.72;;;14.84;83.15
68197;BME280;55019;49.382;11.358;2022-10-22T09:13:47;96713.94;;;15.55;80.83
68197;BME280;55019;49.382;11.358;2022-10-22T09:16:17;96707.84;;;15.69;78.50
68197;BME280;55019;49.382;11.358;2022-10-22T09:19:28;96703.13;;;16.26;75.67
68197;BME280;55019;49.382;11.358;2022-10-22T09:22:03;96699.47;;;16.74;73.73
68197;BME280;55019;49.382;11.358;2022-10-22T09:27:11;96701.81;;;18.99;64.66
68197;BME280;55019;49.382;11.358;2022-10-22T09:29:38;96707.91;;;20.62;58.96
68197;BME280;55019;49.382;11.358;2022-10-22T09:32:04;96701.69;;;22.02;55.35
68197;BME280;55019;49.382;11.358;2022-10-22T09:34:29;96704.03;;;22.78;53.92
68197;BME280;55019;49.382;11.358;2022-10-22T09:37:00;96701.31;;;23.99;48.60
68197;BME280;55019;49.382;11.358;2022-10-22T09:39:31;96698.56;;;25.23;47.37
68197;BME280;55019;49.382;11.358;2022-10-22T09:41:57;96712.06;;;23.44;46.34
68197;BME280;55019;49.382;11.358;2022-10-22T09:44:22;96706.22;;;23.74;45.78
68197;BME280;55019;49.382;11.358;2022-10-22T09:46:48;96712.53;;;24.92;45.35
68197;BME280;55019;49.382;11.358;2022-10-22T09:49:16;96710.38;;;26.15;42.69
68197;BME280;55019;49.382;11.358;2022-10-22T09:51:55;96715.00;;;25.56;42.15
68197;BME280;55019;49.382;11.358;2022-10-22T09:57:17;96719.84;;;27.73;39.49
68197;BME280;55019;49.382;11.358;2022-10-22T09:59:46;96721.41;;;27.19;40.19
68197;BME280;55019;49.382;11.358;2022-10-22T10:02:14;96730.44;;;25.69;42.49
68197;BME280;55019;49.382;11.358;2022-10-22T10:05:01;96728.47;;;21.99;50.42
68197;BME280;55019;49.382;11.358;2022-10-22T10:07:33;96734.59;;;22.28;50.99
68197;BME280;55019;49.382;11.358;2022-10-22T10:09:59;96719.59;;;22.40;51.21
68197;BME280;55019;49.382;11.358;2022-10-22T10:12:47;96727.97;;;23.65;47.84
68197;BME280;55019;49.382;11.358;2022-10-22T10:15:27;96733.66;;;23.57;49.69
68197;BME280;55019;49.382;11.358;2022-10-22T10:20:40;96738.34;;;22.55;50.97
68197;BME280;55019;49.382;11.358;2022-10-22T10:23:28;96740.97;;;20.99;53.85
68197;BME280;55019;49.382;11.358;2022-10-22T10:26:08;96749.16;;;20.44;57.33
68197;BME280;55019;49.382;11.358;2022-10-22T10:28:52;96747.78;;;18.95;61.86
68197;BME280;55019;49.382;11.358;2022-10-22T10:34:08;96762.59;;;18.00;67.41
68197;BME280;55019;49.382;11.358;2022-10-22T10:36:57;96741.03;;;18.18;64.98
68197;BME280;55019;49.382;11.358;2022-10-22T10:39:32;96748.69;;;18.19;65.05
68197;BME280;55019;49.382;11.358;2022-10-22T10:42:20;96742.94;;;19.78;62.83
68197;BME280;55019;49.382;11.358;2022-10-22T10:50:41;96734.75;;;21.87;54.57
68197;BME280;55019;49.382;11.358;2022-10-22T10:53:19;96730.91;;;23.19;50.01
68197;BME280;55019;49.382;11.358;2022-10-22T11:10:24;96731.88;;;25.82;40.52
68197;BME280;55019;49.382;11.358;2022-10-22T11:12:57;96742.47;;;25.24;43.08
68197;BME280;55019;49.382;11.358;2022-10-22T11:15:27;96734.72;;;24.10;45.77
68197;BME280;55019;49.382;11.358;2022-10-22T11:17:58;96738.78;;;24.34;44.90
68197;BME280;55019;49.382;11.358;2022-10-22T11:20:41;96739.50;;;26.15;40.99
68197;BME280;55019;49.382;11.358;2022-10-22T11:23:12;96732.78;;;23.84;44.00
68197;BME280;55019;49.382;11.358;2022-10-22T11:25:47;96748.00;;;22.15;49.59
68197;BME280;55019;49.382;11.358;2022-10-22T11:28:32;96752.44;;;20.87;52.40
68197;BME280;55019;49.382;11.358;2022-10-22T11:31:09;96745.25;;;19.44;57.18
68197;BME280;55019;49.382;11.358;2022-10-22T11:33:44;96745.44;;;19.91;56.45
68197;BME280;55019;49.382;11.358;2022-10-22T11:36:13;96743.03;;;21.38;52.69
68197;BME280;55019;49.382;11.358;2022-10-22T11:38:40;96733.13;;;22.09;51.28
68197;BME280;55019;49.382;11.358;2022-10-22T11:41:11;96739.59;;;20.79;53.38
68197;BME280;55019;49.382;11.358;2022-10-22T11:44:06;96732.19;;;20.94;53.51
68197;BME280;55019;49.382;11.358;2022-10-22T11:49:27;96725.00;;;23.45;46.56
68197;BME280;55019;49.382;11.358;2022-10-22T11:54:47;96726.03;;;25.80;39.81
68197;BME280;55019;49.382;11.358;2022-10-22T11:57:18;96721.44;;;26.53;38.50
68197;BME280;55019;49.382;11.358;2022-10-22T11:59:50;96733.97;;;22.88;45.50
68197;BME280;55019;49.382;11.358;2022-10-22T12:02:23;96738.09;;;20.89;51.47
68197;BME280;55019;49.382;11.358;2022-10-22T12:05:00;96733.84;;;21.18;51.66
68197;BME280;55019;49.382;11.358;2022-10-22T12:08:02;96732.22;;;20.58;53.18
68197;BME280;55019;49.382;11.358;2022-10-22T12:11:11;96733.44;;;20.73;54.04
68197;BME280;55019;49.382;11.358;2022-10-22T12:14:01;96732.00;;;21.82;50.22
68197;BME280;55019;49.382;11.358;2022-10-22T12:16:34;96718.41;;;21.85;49.76
68197;BME280;55019;49.382;11.358;2022-10-22T12:19:28;96725.44;;;22.30;49.46
68197;BME280;55019;49.382;11.358;2022-10-22T12:21:58;96720.53;;;23.46;45.51
68197;BME280;55019;49.382;11.358;2022-10-22T12:24:28;96715.81;;;25.93;39.27
68197;BME280;55019;49.382;11.358;2022-10-22T12:26:54;96717.28;;;26.21;39.54
68197;BME280;55019;49.382;11.358;2022-10-22T12:29:20;96717.41;;;23.48;45.04
68197;BME280;55019;49.382;11.358;2022-10-22T12:31:51;96720.44;;;22.96;47.42
68197;BME280;55019;49.382;11.358;2022-10-22T12:34:21;96717.22;;;25.11;41.86
68197;BME280;55019;49.382;11.358;2022-10-22T12:36:49;96704.19;;;27.32;38.72
68197;BME280;55019;49.382;11.358;2022-10-22T12:39:18;96697.03;;;27.47;35.83
68197;BME280;55019;49.382;11.358;2022-10-22T12:41:44;96708.59;;;26.86;39.18
68197;BME280;55019;49.382;11.358;2022-10-22T12:44:12;96706.91;;;25.15;39.43
68197;BME280;55019;49.382;11.358;2022-10-22T12:46:38;96707.31;;;24.76;42.30
68197;BME280;55019;49.382;11.358;2022-10-22T12:49:09;96711.75;;;25.18;41.89
68197;BME280;55019;49.382;11.358;2022-10-22T12:51:36;96696.63;;;26.84;39.93
68197;BME280;55019;49.382;11.358;2022-10-22T12:54:24;96720.00;;;25.00;41.18
68197;BME280;55019;49.382;11.358;2022-10-22T12:56:52;96714.03;;;25.09;40.03
68197;BME280;55019;49.382;11.358;2022-10-22T12:59:22;96706.34;;;25.08;40.10
68197;BME280;55019;49.382;11.358;2022-10-22T13:01:50;96700.31;;;26.17;39.55
68197;BME280;55019;49.382;11.358;2022-10-22T13:06:48;96706.53;;;27.13;37.96
68197;BME280;55019;49.382;11.358;2022-10-22T13:11:56;96696.84;;;26.67;37.33
68197;BME280;55019;49.382;11.358;2022-10-22T13:14:30;96699.03;;;26.85;37.07
68197;BME280;55019;49.382;11.358;2022-10-22T13:22:38;96701.03;;;23.79;44.16
68197;BME280;55019;49.382;11.358;2022-10-22T13:27:58;96708.63;;;22.43;46.80
68197;BME280;55019;49.382;11.358;2022-10-22T13:30:33;96716.19;;;23.23;46.21
68197;BME280;55019;49.382;11.358;2022-10-22T13:33:16;96704.13;;;25.00;41.95
68197;BME280;55019;49.382;11.358;2022-10-22T13:35:47;96707.44;;;25.75;40.16
68197;BME280;55019;49.382;11.358;2022-10-22T13:38:21;96696.00;;;26.01;37.88
68197;BME280;55019;49.382;11.358;2022-10-22T13:40:47;96709.03;;;25.76;39.74
68197;BME280;55019;49.382;11.358;2022-10-22T13:43:14;96704.22;;;25.68;40.42
68197;BME280;55019;49.382;11.358;2022-10-22T13:45:39;96691.94;;;26.35;38.78
68197;BME280;55019;49.382;11.358;2022-10-22T13:48:12;96694.09;;;25.96;38.05
68197;BME280;55019;49.382;11.358;2022-10-22T13:50:38;96701.09;;;25.76;40.74
68197;BME280;55019;49.382;11.358;2022-10-22T13:53:04;96702.91;;;26.07;39.39
68197;BME280;55019;49.382;11.358;2022-10-22T13:55:30;96698.84;;;26.36;39.40
68197;BME280;55019;49.382;11.358;2022-10-22T13:57:58;96701.34;;;25.11;38.27
68197;BME280;55019;49.382;11.358;2022-10-22T14:00:26;96705.47;;;24.33;39.89
68197;BME280;55019;49.382;11.358;2022-10-22T14:02:54;96712.28;;;22.70;42.54
68197;BME280;55019;49.382;11.358;2022-10-22T14:05:21;96709.00;;;23.19;42.57
68197;BME280;55019;49.382;11.358;2022-10-22T14:07:47;96711.09;;;23.49;41.74
68197;BME280;55019;49.382;11.358;2022-10-22T14:10:23;96705.06;;;24.63;41.37
68197;BME280;55019;49.382;11.358;2022-10-22T14:12:50;96709.97;;;24.54;41.34
68197;BME280;55019;49.382;11.358;2022-10-22T14:15:17;96715.75;;;23.75;41.22
68197;BME280;55019;49.382;11.358;2022-10-22T14:17:45;96718.34;;;22.82;42.42
68197;BME280;55019;49.382;11.358;2022-10-22T14:20:15;96722.50;;;21.17;46.17
68197;BME280;55019;49.382;11.358;2022-10-22T14:22:44;96722.44;;;20.94;47.50
68197;BME280;55019;49.382;11.358;2022-10-22T14:25:14;96713.56;;;20.12;49.57